createdAt,value
2022-09-13T00:00:47.646Z,99.90
2022-09-13T00:01:52.247Z,99.90
2022-09-13T00:02:59.075Z,99.90
2022-09-13T00:04:04.319Z,99.90
2022-09-13T00:05:09.105Z,99.90
2022-09-13T00:06:17.913Z,99.90
2022-09-13T00:07:25.687Z,99.90
2022-09-13T00:09:41.726Z,99.90
2022-09-13T00:10:46.853Z,99.90
2022-09-13T00:11:54.101Z,99.90
2022-09-13T00:13:02.813Z,99.90
2022-09-13T00:14:06.450Z,99.90
2022-09-13T00:15:14.087Z,99.90
2022-09-13T00:16:22.427Z,99.90
2022-09-13T00:17:31.109Z,99.90
2022-09-13T00:18:35.223Z,99.90
2022-09-13T00:19:40.256Z,99.90
2022-09-13T00:20:43.756Z,99.90
2022-09-13T00:21:49.569Z,99.90
2022-09-13T00:22:53.446Z,99.90
2022-09-13T00:23:59.114Z,99.90
2022-09-13T00:25:04.734Z,99.90
2022-09-13T00:26:14.069Z,99.90
2022-09-13T00:27:18.792Z,99.90
2022-09-13T00:28:24.113Z,99.90
2022-09-13T00:29:29.353Z,99.90
2022-09-13T00:30:34.708Z,99.90
2022-09-13T00:32:42.636Z,99.90
2022-09-13T00:33:45.706Z,99.90
2022-09-13T00:34:49.770Z,99.90
2022-09-13T00:35:53.035Z,99.90
2022-09-13T00:36:57.610Z,99.90
2022-09-13T00:38:03.317Z,99.90
2022-09-13T00:39:08.626Z,99.90
2022-09-13T00:40:12.567Z,99.90
2022-09-13T00:41:20.978Z,99.90
2022-09-13T00:42:33.228Z,99.90
2022-09-13T00:43:50.668Z,99.90
2022-09-13T00:45:00.247Z,99.90
2022-09-13T00:46:08.535Z,99.90
2022-09-13T00:47:21.381Z,99.90
2022-09-13T00:48:26.509Z,99.90
2022-09-13T00:49:38.427Z,99.90
2022-09-13T00:50:51.091Z,99.90
2022-09-13T00:52:01.271Z,99.90
2022-09-13T00:53:11.213Z,99.90
2022-09-13T00:54:21.525Z,99.90
2022-09-13T00:55:36.271Z,99.90
2022-09-13T00:56:44.911Z,99.90
2022-09-13T00:57:53.309Z,99.90
2022-09-13T00:59:03.259Z,99.90
2022-09-13T01:00:14.117Z,99.90
2022-09-13T01:01:20.407Z,99.90
2022-09-13T01:02:24.996Z,99.90
2022-09-13T01:03:31.722Z,99.90
2022-09-13T01:04:39.019Z,99.90
2022-09-13T01:05:51.039Z,99.90
2022-09-13T01:07:01.232Z,99.90
2022-09-13T01:08:22.624Z,99.90
2022-09-13T01:09:29.950Z,99.90
2022-09-13T01:10:36.584Z,99.90
2022-09-13T01:11:56.068Z,99.90
2022-09-13T01:13:14.902Z,99.90
2022-09-13T01:14:21.693Z,99.90
2022-09-13T01:15:24.740Z,99.90
2022-09-13T01:16:28.936Z,99.90
2022-09-13T01:17:35.202Z,99.90
2022-09-13T01:18:40.359Z,99.90
2022-09-13T01:19:45.689Z,99.90
2022-09-13T01:21:20.716Z,99.90
2022-09-13T01:23:13.686Z,99.90
2022-09-13T01:24:54.847Z,99.90
2022-09-13T01:26:55.167Z,99.90
2022-09-13T01:28:19.475Z,99.90
2022-09-13T01:30:01.850Z,99.90
2022-09-13T01:31:16.049Z,99.90
2022-09-13T01:32:32.337Z,99.90
2022-09-13T01:33:56.823Z,99.90
2022-09-13T01:35:18.159Z,99.90
2022-09-13T01:36:50.708Z,99.90
2022-09-13T01:38:03.875Z,99.90
2022-09-13T01:39:24.568Z,99.90
2022-09-13T01:40:49.643Z,99.90
2022-09-13T01:42:12.963Z,99.90
2022-09-13T01:43:32.729Z,99.90
2022-09-13T01:44:55.194Z,99.90
2022-09-13T01:46:07.200Z,99.90
2022-09-13T01:47:25.715Z,99.90
2022-09-13T01:48:47.603Z,99.90
2022-09-13T01:50:11.569Z,99.90
2022-09-13T01:51:27.617Z,99.90
2022-09-13T01:52:40.935Z,99.90
2022-09-13T01:53:53.275Z,99.90
2022-09-13T01:55:07.070Z,99.90
2022-09-13T01:56:17.789Z,99.90
2022-09-13T01:57:31.344Z,99.90
2022-09-13T01:58:44.116Z,99.90
2022-09-13T01:59:54.179Z,99.90
2022-09-13T02:01:11.221Z,99.90
2022-09-13T02:02:23.201Z,99.90
2022-09-13T02:03:34.680Z,99.90
2022-09-13T02:04:46.709Z,99.90
2022-09-13T02:05:58.652Z,99.90
2022-09-13T02:07:09.542Z,99.90
2022-09-13T02:08:19.486Z,99.90
2022-09-13T02:09:29.129Z,99.90
2022-09-13T02:10:38.749Z,99.90
2022-09-13T02:11:49.109Z,99.90
2022-09-13T02:12:56.542Z,99.90
2022-09-13T02:14:08.565Z,99.90
2022-09-13T02:15:17.279Z,99.90
2022-09-13T02:16:30.628Z,99.90
2022-09-13T02:17:39.991Z,99.90
2022-09-13T02:18:50.795Z,99.90
2022-09-13T02:20:00.477Z,99.90
2022-09-13T02:21:12.363Z,99.90
2022-09-13T02:22:23.435Z,99.90
2022-09-13T02:23:34.861Z,99.90
2022-09-13T02:24:43.665Z,99.90
2022-09-13T02:25:49.525Z,99.90
2022-09-13T02:26:57.917Z,99.90
2022-09-13T02:28:08.017Z,99.90
2022-09-13T02:29:18.109Z,99.90
2022-09-13T02:30:22.507Z,99.90
2022-09-13T02:31:37.803Z,99.90
2022-09-13T02:32:46.854Z,99.90
2022-09-13T02:33:58.751Z,99.90
2022-09-13T02:35:10.364Z,99.90
2022-09-13T02:36:22.515Z,99.90
2022-09-13T02:37:31.531Z,99.90
2022-09-13T02:38:45.364Z,99.90
2022-09-13T02:39:55.610Z,99.90
2022-09-13T02:41:09.040Z,99.90
2022-09-13T02:42:20.048Z,99.90
2022-09-13T02:43:32.999Z,99.90
2022-09-13T02:44:44.985Z,99.90
2022-09-13T02:45:55.945Z,99.90
2022-09-13T02:47:22.842Z,99.90
2022-09-13T02:48:38.619Z,99.90
2022-09-13T02:49:54.602Z,99.90
2022-09-13T02:51:06.851Z,99.90
2022-09-13T02:52:22.422Z,99.90
2022-09-13T02:53:39.461Z,99.90
2022-09-13T02:54:52.483Z,99.90
2022-09-13T02:56:06.531Z,99.90
2022-09-13T02:57:22.525Z,99.90
2022-09-13T02:58:35.837Z,99.90
2022-09-13T02:59:40.433Z,99.90
2022-09-13T03:00:44.942Z,99.90
2022-09-13T03:01:54.027Z,99.90
2022-09-13T03:03:04.757Z,99.90
2022-09-13T03:04:09.292Z,99.90
2022-09-13T03:05:12.555Z,99.90
2022-09-13T03:06:24.262Z,99.90
2022-09-13T03:07:27.297Z,99.90
2022-09-13T03:08:34.955Z,99.90
2022-09-13T03:09:43.781Z,99.90
2022-09-13T03:11:00.307Z,99.90
2022-09-13T03:12:28.732Z,99.90
2022-09-13T03:13:51.485Z,99.90
2022-09-13T03:15:04.587Z,99.90
2022-09-13T03:16:24.425Z,99.90
2022-09-13T03:17:43.717Z,99.90
2022-09-13T03:19:01.151Z,99.90
2022-09-13T03:20:19.202Z,99.90
2022-09-13T03:21:52.653Z,99.90
2022-09-13T03:23:22.272Z,99.90
2022-09-13T03:24:33.058Z,99.90
2022-09-13T03:25:55.362Z,99.90
2022-09-13T03:27:19.066Z,99.90
2022-09-13T03:28:34.938Z,99.90
2022-09-13T03:29:48.017Z,99.90
2022-09-13T03:30:58.599Z,99.90
2022-09-13T03:32:22.336Z,99.90
2022-09-13T03:33:31.795Z,99.90
2022-09-13T03:34:49.289Z,99.90
2022-09-13T03:37:13.473Z,99.90
2022-09-13T03:38:21.057Z,99.90
2022-09-13T03:39:36.864Z,99.90
2022-09-13T03:40:46.972Z,99.90
2022-09-13T03:41:57.813Z,99.90
2022-09-13T03:43:11.671Z,99.90
2022-09-13T03:44:20.905Z,99.90
2022-09-13T03:45:31.623Z,99.90
2022-09-13T03:46:40.311Z,99.90
2022-09-13T03:47:54.031Z,99.90
2022-09-13T03:49:01.337Z,99.90
2022-09-13T03:50:10.513Z,99.90
2022-09-13T03:51:14.120Z,99.90
2022-09-13T03:52:19.657Z,99.90
2022-09-13T03:53:26.601Z,99.90
2022-09-13T03:54:33.691Z,99.90
2022-09-13T03:55:43.161Z,99.90
2022-09-13T03:57:08.880Z,99.90
2022-09-13T03:58:16.599Z,99.90
2022-09-13T03:59:22.690Z,99.90
2022-09-13T04:00:26.978Z,99.90
2022-09-13T04:01:31.390Z,99.90
2022-09-13T04:02:34.987Z,99.90
2022-09-13T04:03:39.556Z,99.90
2022-09-13T04:04:44.695Z,99.90
2022-09-13T04:05:49.458Z,99.90
2022-09-13T04:06:54.584Z,99.90
2022-09-13T04:07:57.559Z,99.90
2022-09-13T04:09:03.765Z,99.90
2022-09-13T04:10:10.729Z,99.90
2022-09-13T04:11:19.932Z,99.90
2022-09-13T04:12:22.600Z,99.90
2022-09-13T04:13:27.451Z,99.90
2022-09-13T04:14:30.531Z,99.90
2022-09-13T04:15:34.025Z,99.90
2022-09-13T04:16:36.522Z,99.90
2022-09-13T04:18:46.527Z,99.90
2022-09-13T04:19:51.874Z,99.90
2022-09-13T04:21:00.751Z,99.90
2022-09-13T04:22:04.581Z,99.90
2022-09-13T04:23:07.483Z,99.90
2022-09-13T04:24:11.280Z,99.90
2022-09-13T04:25:14.665Z,99.90
2022-09-13T04:26:19.361Z,99.90
2022-09-13T04:27:22.440Z,99.90
2022-09-13T04:28:28.091Z,99.90
2022-09-13T04:29:34.951Z,99.90
2022-09-13T04:30:42.593Z,99.90
2022-09-13T04:31:46.957Z,99.90
2022-09-13T04:32:51.444Z,99.90
2022-09-13T04:33:55.368Z,99.90
2022-09-13T04:34:59.511Z,99.90
2022-09-13T04:36:04.400Z,99.90
2022-09-13T04:37:08.378Z,99.90
2022-09-13T04:38:11.585Z,99.90
2022-09-13T04:39:15.654Z,99.90
2022-09-13T04:40:18.881Z,99.90
2022-09-13T04:41:23.049Z,99.90
2022-09-13T04:42:25.673Z,99.90
2022-09-13T04:43:30.306Z,99.90
2022-09-13T04:44:36.080Z,99.90
2022-09-13T04:45:42.802Z,99.90
2022-09-13T04:46:49.047Z,99.90
2022-09-13T04:47:54.033Z,99.90
2022-09-13T04:48:58.832Z,99.90
2022-09-13T04:50:03.914Z,99.90
2022-09-13T04:51:08.662Z,99.80
2022-09-13T04:52:14.121Z,98.90
2022-09-13T04:53:20.416Z,98.10
2022-09-13T04:54:24.798Z,97.50
2022-09-13T04:55:28.012Z,97.10
2022-09-13T04:56:33.147Z,96.70
2022-09-13T04:57:36.219Z,96.50
2022-09-13T04:58:39.852Z,96.60
2022-09-13T04:59:44.474Z,96.80
2022-09-13T05:00:48.899Z,95.80
2022-09-13T05:01:54.100Z,96.30
2022-09-13T05:03:01.067Z,96.00
2022-09-13T05:04:05.496Z,95.70
2022-09-13T05:05:09.585Z,95.50
2022-09-13T05:06:18.182Z,95.40
2022-09-13T05:07:20.997Z,95.30
2022-09-13T05:08:24.969Z,95.20
2022-09-13T05:09:31.325Z,95.20
2022-09-13T05:10:34.198Z,95.00
2022-09-13T05:11:38.033Z,95.20
2022-09-13T05:12:40.880Z,95.10
2022-09-13T05:13:45.079Z,95.20
2022-09-13T05:14:48.157Z,95.10
2022-09-13T05:15:52.034Z,94.90
2022-09-13T05:16:55.353Z,95.20
2022-09-13T05:17:59.162Z,95.30
2022-09-13T05:19:03.139Z,95.40
2022-09-13T05:20:08.571Z,95.40
2022-09-13T05:21:15.404Z,95.50
2022-09-13T05:22:19.989Z,95.50
2022-09-13T05:23:24.574Z,95.50
2022-09-13T05:24:29.175Z,95.50
2022-09-13T05:25:35.393Z,95.60
2022-09-13T05:26:39.842Z,94.90
2022-09-13T05:27:46.414Z,94.50
2022-09-13T05:28:56.960Z,94.50
2022-09-13T05:30:02.824Z,94.50
2022-09-13T05:31:09.832Z,94.30
2022-09-13T05:32:13.677Z,94.60
2022-09-13T05:33:17.654Z,94.70
2022-09-13T05:34:22.991Z,94.70
2022-09-13T05:35:26.300Z,94.60
2022-09-13T05:36:34.390Z,94.20
2022-09-13T05:37:38.178Z,94.20
2022-09-13T05:38:41.381Z,93.50
2022-09-13T05:40:07.751Z,94.30
2022-09-13T05:41:10.263Z,94.30
2022-09-13T05:42:13.254Z,94.30
2022-09-13T05:43:17.450Z,92.80
2022-09-13T05:44:23.874Z,93.10
2022-09-13T05:45:27.831Z,92.50
2022-09-13T05:46:30.716Z,92.20
2022-09-13T05:47:34.587Z,91.80
2022-09-13T05:48:38.203Z,91.60
2022-09-13T05:50:08.350Z,91.40
2022-09-13T05:51:10.413Z,91.50
2022-09-13T05:52:18.037Z,91.10
2022-09-13T05:53:28.290Z,90.90
2022-09-13T05:54:31.614Z,91.10
2022-09-13T05:55:34.605Z,90.80
2022-09-13T05:56:39.200Z,90.60
2022-09-13T05:57:41.914Z,90.40
2022-09-13T05:58:48.345Z,89.70
2022-09-13T05:59:51.095Z,90.20
2022-09-13T06:00:56.987Z,89.60
2022-09-13T06:02:00.324Z,89.20
2022-09-13T06:03:03.963Z,90.00
2022-09-13T06:04:06.502Z,89.00
2022-09-13T06:05:11.674Z,90.10
2022-09-13T06:06:14.815Z,90.30
2022-09-13T06:07:19.774Z,90.30
2022-09-13T06:08:23.117Z,90.00
2022-09-13T06:09:29.030Z,89.60
2022-09-13T06:10:32.077Z,89.40
2022-09-13T06:11:38.412Z,89.30
2022-09-13T06:12:41.373Z,89.50
2022-09-13T06:13:45.204Z,90.10
2022-09-13T06:14:47.886Z,87.70
2022-09-13T06:15:52.014Z,87.30
2022-09-13T06:16:55.739Z,87.80
2022-09-13T06:18:00.918Z,87.00
2022-09-13T06:19:03.844Z,87.40
2022-09-13T06:20:09.581Z,85.90
2022-09-13T06:21:18.182Z,85.80
2022-09-13T06:22:24.855Z,83.50
2022-09-13T06:23:27.708Z,83.40
2022-09-13T06:24:31.352Z,83.60
2022-09-13T06:25:34.226Z,84.70
2022-09-13T06:26:39.575Z,83.40
2022-09-13T06:27:42.427Z,82.50
2022-09-13T06:28:49.787Z,82.30
2022-09-13T06:29:52.592Z,83.10
2022-09-13T06:31:02.285Z,83.80
2022-09-13T06:32:05.263Z,84.60
2022-09-13T06:33:08.994Z,85.40
2022-09-13T06:34:13.295Z,82.80
2022-09-13T06:35:16.997Z,82.60
2022-09-13T06:36:21.295Z,83.10
2022-09-13T06:37:26.423Z,82.50
2022-09-13T06:38:30.137Z,85.40
2022-09-13T06:39:34.500Z,84.30
2022-09-13T06:40:38.219Z,82.80
2022-09-13T06:41:41.781Z,85.00
2022-09-13T06:42:44.601Z,81.80
2022-09-13T06:43:48.796Z,80.80
2022-09-13T06:44:51.524Z,79.20
2022-09-13T06:45:56.866Z,78.50
2022-09-13T06:46:59.295Z,79.40
2022-09-13T06:48:03.422Z,79.70
2022-09-13T06:49:09.798Z,78.00
2022-09-13T06:50:13.919Z,78.90
2022-09-13T06:51:20.150Z,79.10
2022-09-13T06:52:24.033Z,79.90
2022-09-13T06:53:30.405Z,79.90
2022-09-13T06:54:32.788Z,81.60
2022-09-13T06:55:36.340Z,81.70
2022-09-13T06:56:41.176Z,79.80
2022-09-13T06:57:43.631Z,79.10
2022-09-13T06:58:49.227Z,79.30
2022-09-13T06:59:51.941Z,81.40
2022-09-13T07:00:56.276Z,81.90
2022-09-13T07:02:00.243Z,83.50
2022-09-13T07:03:04.079Z,81.20
2022-09-13T07:04:08.873Z,81.00
2022-09-13T07:05:12.785Z,81.50
2022-09-13T07:06:22.037Z,81.60
2022-09-13T07:07:28.051Z,82.10
2022-09-13T07:08:32.699Z,79.90
2022-09-13T07:09:36.364Z,79.20
2022-09-13T07:10:39.631Z,78.90
2022-09-13T07:11:44.165Z,79.00
2022-09-13T07:12:48.804Z,77.50
2022-09-13T07:13:55.010Z,78.80
2022-09-13T07:14:58.948Z,76.80
2022-09-13T07:16:07.626Z,77.10
2022-09-13T07:17:13.882Z,77.10
2022-09-13T07:18:16.495Z,77.20
2022-09-13T07:19:23.014Z,78.20
2022-09-13T07:20:25.590Z,79.10
2022-09-13T07:21:30.367Z,79.40
2022-09-13T07:22:35.569Z,77.50
2022-09-13T07:23:42.157Z,76.70
2022-09-13T07:24:45.669Z,76.50
2022-09-13T07:25:55.954Z,76.00
2022-09-13T07:27:00.043Z,76.00
2022-09-13T07:28:03.238Z,77.30
2022-09-13T07:29:10.692Z,77.10
2022-09-13T07:30:13.253Z,77.00
2022-09-13T07:31:21.112Z,76.60
2022-09-13T07:32:24.616Z,76.50
2022-09-13T07:33:27.221Z,77.20
2022-09-13T07:34:31.687Z,76.60
2022-09-13T07:35:34.433Z,75.80
2022-09-13T07:36:39.813Z,75.40
2022-09-13T07:37:45.853Z,74.30
2022-09-13T07:38:51.081Z,75.20
2022-09-13T07:39:55.064Z,75.70
2022-09-13T07:40:59.732Z,74.70
2022-09-13T07:42:05.742Z,75.20
2022-09-13T07:43:08.725Z,76.10
2022-09-13T07:44:14.112Z,75.50
2022-09-13T07:45:17.069Z,74.80
2022-09-13T07:46:22.947Z,74.50
2022-09-13T07:47:25.746Z,75.50
2022-09-13T07:48:33.712Z,74.80
2022-09-13T07:49:37.354Z,76.70
2022-09-13T07:50:41.168Z,76.40
2022-09-13T07:51:45.811Z,76.10
2022-09-13T07:52:48.518Z,75.00
2022-09-13T07:54:00.276Z,74.60
2022-09-13T07:55:03.028Z,72.90
2022-09-13T07:56:09.497Z,74.20
2022-09-13T07:57:12.963Z,73.60
2022-09-13T07:58:16.539Z,71.40
2022-09-13T07:59:20.725Z,70.90
2022-09-13T08:00:25.321Z,71.60
2022-09-13T08:01:32.789Z,71.40
2022-09-13T08:02:37.667Z,69.70
2022-09-13T08:03:41.594Z,68.00
2022-09-13T08:04:47.469Z,69.50
2022-09-13T08:05:50.046Z,68.60
2022-09-13T08:06:54.040Z,68.60
2022-09-13T08:07:56.709Z,69.20
2022-09-13T08:09:04.402Z,67.00
2022-09-13T08:10:07.666Z,66.70
2022-09-13T08:11:19.419Z,66.00
2022-09-13T08:12:22.382Z,64.90
2022-09-13T08:13:27.700Z,65.90
2022-09-13T08:14:31.607Z,66.10
2022-09-13T08:15:34.368Z,66.00
2022-09-13T08:16:39.497Z,64.90
2022-09-13T08:17:47.879Z,65.70
2022-09-13T08:18:53.308Z,64.60
2022-09-13T08:19:57.041Z,65.30
2022-09-13T08:21:02.431Z,65.00
2022-09-13T08:22:06.222Z,65.10
2022-09-13T08:23:13.955Z,65.70
2022-09-13T08:24:35.527Z,65.40
2022-09-13T08:25:38.903Z,65.70
2022-09-13T08:26:45.879Z,65.20
2022-09-13T08:27:48.453Z,64.80
2022-09-13T08:28:58.135Z,65.50
2022-09-13T08:30:00.724Z,65.40
2022-09-13T08:31:07.265Z,66.20
2022-09-13T08:32:12.064Z,66.10
2022-09-13T08:33:16.756Z,65.90
2022-09-13T08:34:21.689Z,66.50
2022-09-13T08:35:24.847Z,65.90
2022-09-13T08:36:30.714Z,66.30
2022-09-13T08:37:35.504Z,66.20
2022-09-13T08:38:41.578Z,65.80
2022-09-13T08:39:46.852Z,65.20
2022-09-13T08:40:56.859Z,65.40
2022-09-13T08:42:20.928Z,66.20
2022-09-13T08:43:41.314Z,66.20
2022-09-13T08:44:50.729Z,66.20
2022-09-13T08:46:03.038Z,66.10
2022-09-13T08:47:43.093Z,66.00
2022-09-13T08:48:51.557Z,66.20
2022-09-13T08:50:11.267Z,66.10
2022-09-13T08:51:29.887Z,65.80
2022-09-13T08:52:41.129Z,65.40
2022-09-13T08:53:51.563Z,65.10
2022-09-13T08:55:06.470Z,64.00
2022-09-13T08:56:21.433Z,63.00
2022-09-13T08:57:33.034Z,64.00
2022-09-13T08:59:04.325Z,64.80
2022-09-13T09:00:20.946Z,64.80
2022-09-13T09:01:40.359Z,63.80
2022-09-13T09:03:02.273Z,63.40
2022-09-13T09:04:16.275Z,63.50
2022-09-13T09:05:22.931Z,62.90
2022-09-13T09:06:27.447Z,62.50
2022-09-13T09:07:38.207Z,61.50
2022-09-13T09:08:54.787Z,61.80
2022-09-13T09:10:06.459Z,60.80
2022-09-13T09:11:18.972Z,61.10
2022-09-13T09:12:34.952Z,62.20
2022-09-13T09:13:50.301Z,63.20
2022-09-13T09:15:05.711Z,63.60
2022-09-13T09:16:25.986Z,62.60
2022-09-13T09:17:45.343Z,63.30
2022-09-13T09:18:50.097Z,62.80
2022-09-13T09:20:04.593Z,63.50
2022-09-13T09:21:17.938Z,61.60
2022-09-13T09:22:24.965Z,63.00
2022-09-13T09:23:35.935Z,63.40
2022-09-13T09:24:42.621Z,64.60
2022-09-13T09:25:49.954Z,64.90
2022-09-13T09:26:54.323Z,65.00
2022-09-13T09:27:59.298Z,64.60
2022-09-13T09:29:09.573Z,64.70
2022-09-13T09:30:16.664Z,66.00
2022-09-13T09:31:33.657Z,65.50
2022-09-13T09:32:51.588Z,65.00
2022-09-13T09:34:10.357Z,66.00
2022-09-13T09:35:28.965Z,64.00
2022-09-13T09:36:43.621Z,63.90
2022-09-13T09:38:01.581Z,64.70
2022-09-13T09:39:06.851Z,65.40
2022-09-13T09:40:17.306Z,62.80
2022-09-13T09:41:28.241Z,63.80
2022-09-13T09:42:42.928Z,62.90
2022-09-13T09:43:57.207Z,64.60
2022-09-13T09:45:05.881Z,65.10
2022-09-13T09:46:14.287Z,63.40
2022-09-13T09:47:25.944Z,63.70
2022-09-13T09:48:43.802Z,65.70
2022-09-13T09:50:08.721Z,63.80
2022-09-13T09:51:17.078Z,64.80
2022-09-13T09:52:26.444Z,64.10
2022-09-13T09:53:37.189Z,63.80
2022-09-13T09:54:44.251Z,62.30
2022-09-13T09:55:54.325Z,62.90
2022-09-13T09:56:59.192Z,62.00
2022-09-13T09:58:06.766Z,62.30
2022-09-13T09:59:26.987Z,61.90
2022-09-13T10:00:34.307Z,63.10
2022-09-13T10:01:40.178Z,62.00
2022-09-13T10:02:47.643Z,61.90
2022-09-13T10:04:03.626Z,63.00
2022-09-13T10:05:07.258Z,63.70
2022-09-13T10:06:15.482Z,64.20
2022-09-13T10:07:32.811Z,61.50
2022-09-13T10:08:39.040Z,60.20
2022-09-13T10:09:59.161Z,61.90
2022-09-13T10:11:04.900Z,62.10
2022-09-13T10:12:11.329Z,61.40
2022-09-13T10:13:20.133Z,61.20
2022-09-13T10:14:38.480Z,60.30
2022-09-13T10:15:55.839Z,62.00
2022-09-13T10:17:16.183Z,62.00
2022-09-13T10:18:43.071Z,62.30
2022-09-13T10:20:01.455Z,61.60
2022-09-13T10:21:10.459Z,60.80
2022-09-13T10:22:14.940Z,61.80
2022-09-13T10:23:21.707Z,62.40
2022-09-13T10:24:27.418Z,61.80
2022-09-13T10:25:32.006Z,62.40
2022-09-13T10:26:39.475Z,62.50
2022-09-13T10:27:51.055Z,61.90
2022-09-13T10:29:02.254Z,61.10
2022-09-13T10:30:08.136Z,61.90
2022-09-13T10:31:17.554Z,62.50
2022-09-13T10:32:23.158Z,63.60
2022-09-13T10:33:32.321Z,62.00
2022-09-13T10:34:39.068Z,63.00
2022-09-13T10:35:42.861Z,63.20
2022-09-13T10:36:57.610Z,63.20
2022-09-13T10:38:02.402Z,63.70
2022-09-13T10:39:11.826Z,65.40
2022-09-13T10:40:28.450Z,64.30
2022-09-13T10:41:36.100Z,64.50
2022-09-13T10:42:40.001Z,63.60
2022-09-13T10:43:44.283Z,64.40
2022-09-13T10:44:57.302Z,64.90
2022-09-13T10:46:04.379Z,65.00
2022-09-13T10:47:20.556Z,63.80
2022-09-13T10:48:24.464Z,62.90
2022-09-13T10:49:40.125Z,63.60
2022-09-13T10:51:07.157Z,64.60
2022-09-13T10:52:44.507Z,64.00
2022-09-13T10:53:47.891Z,63.70
2022-09-13T10:54:51.532Z,64.00
2022-09-13T10:55:56.008Z,63.40
2022-09-13T10:57:01.007Z,64.00
2022-09-13T10:58:17.674Z,66.20
2022-09-13T10:59:34.013Z,64.40
2022-09-13T11:01:13.607Z,65.10
2022-09-13T11:02:55.974Z,64.10
2022-09-13T11:04:30.092Z,64.30
2022-09-13T11:05:43.161Z,63.50
2022-09-13T11:07:02.223Z,63.80
2022-09-13T11:08:33.076Z,64.00
2022-09-13T11:09:45.501Z,64.50
2022-09-13T11:11:08.029Z,65.50
2022-09-13T11:12:24.696Z,65.40
2022-09-13T11:13:40.824Z,64.40
2022-09-13T11:15:00.958Z,64.60
2022-09-13T11:16:23.928Z,64.90
2022-09-13T11:17:55.060Z,65.90
2022-09-13T11:19:33.932Z,65.70
2022-09-13T11:20:56.790Z,65.60
2022-09-13T11:22:24.683Z,64.60
2022-09-13T11:23:51.204Z,65.10
2022-09-13T11:25:15.494Z,65.60
2022-09-13T11:26:42.092Z,65.60
2022-09-13T11:28:05.192Z,65.30
2022-09-13T11:29:27.510Z,64.50
2022-09-13T11:30:50.538Z,64.80
2022-09-13T11:32:08.871Z,64.80
2022-09-13T11:33:31.783Z,65.60
2022-09-13T11:34:52.601Z,66.20
2022-09-13T11:36:18.904Z,65.80
2022-09-13T11:37:41.493Z,66.00
2022-09-13T11:39:04.077Z,65.10
2022-09-13T11:40:34.119Z,65.70
2022-09-13T11:41:47.095Z,66.30
2022-09-13T11:43:05.318Z,66.10
2022-09-13T11:44:35.442Z,66.40
2022-09-13T11:45:56.132Z,67.40
2022-09-13T11:47:15.075Z,67.10
2022-09-13T11:48:45.517Z,67.40
2022-09-13T11:50:24.428Z,67.40
2022-09-13T11:51:43.716Z,66.80
2022-09-13T11:53:04.484Z,67.30
2022-09-13T11:54:29.155Z,67.40
2022-09-13T11:55:38.663Z,68.10
2022-09-13T11:56:48.668Z,68.30
2022-09-13T11:57:57.172Z,68.30
2022-09-13T11:59:20.849Z,68.10
2022-09-13T12:00:28.413Z,68.20
2022-09-13T12:01:40.992Z,68.40
2022-09-13T12:02:53.024Z,68.10
2022-09-13T12:04:04.132Z,68.00
2022-09-13T12:05:24.527Z,67.60
2022-09-13T12:06:34.690Z,68.30
2022-09-13T12:07:45.021Z,68.50
2022-09-13T12:08:57.143Z,68.50
2022-09-13T12:10:06.635Z,68.50
2022-09-13T12:11:19.823Z,68.30
2022-09-13T12:12:29.361Z,69.00
2022-09-13T12:13:43.476Z,70.10
2022-09-13T12:14:53.132Z,70.20
2022-09-13T12:16:05.785Z,70.10
2022-09-13T12:17:31.564Z,69.40
2022-09-13T12:18:44.832Z,69.80
2022-09-13T12:19:57.380Z,68.90
2022-09-13T12:21:09.055Z,69.80
2022-09-13T12:22:15.839Z,69.80
2022-09-13T12:23:28.696Z,70.50
2022-09-13T12:24:41.674Z,70.40
2022-09-13T12:25:53.119Z,71.80
2022-09-13T12:27:06.012Z,70.20
2022-09-13T12:28:19.766Z,70.90
2022-09-13T12:29:33.675Z,71.30
2022-09-13T12:30:46.621Z,71.20
2022-09-13T12:31:50.496Z,71.80
2022-09-13T12:32:59.138Z,71.50
2022-09-13T12:34:12.330Z,71.20
2022-09-13T12:35:26.589Z,72.30
2022-09-13T12:37:02.393Z,72.20
2022-09-13T12:38:35.430Z,72.30
2022-09-13T12:40:06.472Z,72.00
2022-09-13T12:41:38.062Z,72.90
2022-09-13T12:43:09.098Z,72.80
2022-09-13T12:44:49.790Z,72.80
2022-09-13T12:46:26.456Z,72.80
2022-09-13T12:47:54.808Z,73.40
2022-09-13T12:49:27.313Z,73.70
2022-09-13T12:51:01.349Z,74.30
2022-09-13T12:52:22.877Z,73.20
2022-09-13T12:53:52.813Z,73.00
2022-09-13T12:55:45.989Z,73.70
2022-09-13T12:57:12.460Z,73.30
2022-09-13T12:58:47.842Z,74.00
2022-09-13T13:00:13.368Z,74.40
2022-09-13T13:01:22.647Z,74.70
2022-09-13T13:02:31.247Z,74.80
2022-09-13T13:03:51.252Z,74.90
2022-09-13T13:05:02.489Z,74.60
2022-09-13T13:06:22.023Z,75.30
2022-09-13T13:07:26.387Z,75.50
2022-09-13T13:08:32.842Z,75.30
2022-09-13T13:09:43.024Z,75.70
2022-09-13T13:11:01.609Z,75.50
2022-09-13T13:12:06.913Z,74.80
2022-09-13T13:13:13.003Z,75.10
2022-09-13T13:14:54.630Z,75.30
2022-09-13T13:16:04.174Z,75.70
2022-09-13T13:17:44.005Z,76.50
2022-09-13T13:18:49.741Z,77.10
2022-09-13T13:19:58.514Z,77.00
2022-09-13T13:21:31.593Z,77.50
2022-09-13T13:22:57.828Z,77.40
2022-09-13T13:24:45.961Z,78.40
2022-09-13T13:26:11.924Z,78.70
2022-09-13T13:27:49.964Z,78.70
2022-09-13T13:29:16.044Z,79.60
2022-09-13T13:30:48.744Z,78.90
2022-09-13T13:32:13.695Z,79.90
2022-09-13T13:33:21.394Z,80.00
2022-09-13T13:34:42.806Z,79.70
2022-09-13T13:35:49.782Z,80.20
2022-09-13T13:37:05.130Z,80.20
2022-09-13T13:38:49.448Z,80.40
2022-09-13T13:40:25.447Z,81.20
2022-09-13T13:41:56.326Z,81.90
2022-09-13T13:43:19.305Z,81.00
2022-09-13T13:45:10.321Z,80.50
2022-09-13T13:46:31.259Z,81.80
2022-09-13T13:48:10.137Z,81.50
2022-09-13T13:49:44.864Z,82.80
2022-09-13T13:51:15.631Z,82.70
2022-09-13T13:52:39.095Z,81.90
2022-09-13T13:53:46.708Z,83.20
2022-09-13T13:55:22.609Z,83.20
2022-09-13T13:56:41.339Z,83.20
2022-09-13T13:58:00.229Z,81.10
2022-09-13T13:59:19.115Z,81.00
2022-09-13T14:00:30.452Z,81.70
2022-09-13T14:01:38.576Z,81.90
2022-09-13T14:02:53.805Z,82.80
2022-09-13T14:04:24.501Z,82.00
2022-09-13T14:05:41.185Z,82.00
2022-09-13T14:07:06.088Z,81.60
2022-09-13T14:08:37.159Z,83.00
2022-09-13T14:09:55.866Z,84.90
2022-09-13T14:11:14.555Z,86.80
2022-09-13T14:12:41.318Z,83.40
2022-09-13T14:14:04.976Z,84.80
2022-09-13T14:15:43.488Z,83.30
2022-09-13T14:17:05.688Z,82.50
2022-09-13T14:18:49.705Z,81.30
2022-09-13T14:19:57.136Z,82.40
2022-09-13T14:21:01.649Z,82.00
2022-09-13T14:22:18.292Z,80.90
2022-09-13T14:23:21.766Z,81.40
2022-09-13T14:24:27.661Z,82.20
2022-09-13T14:25:31.292Z,81.10
2022-09-13T14:26:38.087Z,81.40
2022-09-13T14:27:46.447Z,82.50
2022-09-13T14:28:52.279Z,82.10
2022-09-13T14:30:03.943Z,81.40
2022-09-13T14:31:08.407Z,81.70
2022-09-13T14:32:20.751Z,81.70
2022-09-13T14:33:31.491Z,81.40
2022-09-13T14:34:39.833Z,81.90
2022-09-13T14:35:42.558Z,82.70
2022-09-13T14:36:55.730Z,82.50
2022-09-13T14:38:13.771Z,81.80
2022-09-13T14:39:18.722Z,81.40
2022-09-13T14:40:26.848Z,81.30
2022-09-13T14:41:35.126Z,81.70
2022-09-13T14:42:43.834Z,81.60
2022-09-13T14:43:51.475Z,81.70
2022-09-13T14:44:55.513Z,82.10
2022-09-13T14:46:11.442Z,81.90
2022-09-13T14:47:24.916Z,81.90
2022-09-13T14:48:35.478Z,82.30
2022-09-13T14:49:49.327Z,82.50
2022-09-13T14:51:06.257Z,82.80
2022-09-13T14:52:22.654Z,83.30
2022-09-13T14:53:31.666Z,83.00
2022-09-13T14:54:42.230Z,82.70
2022-09-13T14:55:52.379Z,83.00
2022-09-13T14:57:01.047Z,83.40
2022-09-13T14:58:14.755Z,83.40
2022-09-13T14:59:27.575Z,82.80
2022-09-13T15:00:42.884Z,82.40
2022-09-13T15:01:50.798Z,82.00
2022-09-13T15:02:59.047Z,82.10
2022-09-13T15:04:07.553Z,81.80
2022-09-13T15:05:18.138Z,82.70
2022-09-13T15:06:26.387Z,83.30
2022-09-13T15:07:33.835Z,82.40
2022-09-13T15:08:51.743Z,81.80
2022-09-13T15:10:07.669Z,81.40
2022-09-13T15:11:19.940Z,81.30
2022-09-13T15:12:26.284Z,81.20
2022-09-13T15:13:32.023Z,81.70
2022-09-13T15:14:38.083Z,81.70
2022-09-13T15:15:50.286Z,80.50
2022-09-13T15:16:59.818Z,81.10
2022-09-13T15:18:06.793Z,81.10
2022-09-13T15:19:30.286Z,80.90
2022-09-13T15:20:52.997Z,80.80
2022-09-13T15:22:21.184Z,80.30
2022-09-13T15:23:29.697Z,80.10
2022-09-13T15:24:36.668Z,80.40
2022-09-13T15:25:43.689Z,81.00